All Spectrum Aviation - Van Nuys Airport - KVNY

HOME

Condor Squadron KVNY Webcam

Visit our Electronics Store

Condor Squadron Webcam - Van Nuys Airport - KVNY
Picture taken: Mon, 16 Sep 2019 15:19:19 -0700
YouTube Channel!    Latest Timelapse Movie    Full Size Image    Regular Size Image    

2019/09/16 21:51 KVNY 162151Z 16014KT 10SM CLR 31/04 A2987 RMK AO2 SLP106 T03110039

HOME

Condor Squadron KVNY Webcam

Visit our Electronics Store